Flight Track Log - Related Links

Times and Time Zones

All times are in EDT time to prevent confusion due to time zone crossing. See the UAL4588 flight status page for this flight to view local times or setup timezone preferences in your user account.


Time Position Orientation Groundspeed Altitude Reporting Facility
EDT Latitude Longitude Course Direction KTS MPH feet Rate Location/Type
Sun 10:01:43 AM 29.9619 -95.3458 200° South 156 180 600  Level Houston Center
Sun 10:02:32 AM 29.9294 -95.3594 200° South 197 227 2,100 2,000 Climbing Houston Center
Sun 10:03:13 AM 29.9511 -95.3925 307° West 253 291 3,600 2,097 Climbing Houston Center
Sun 10:04:15 AM 30.0128 -95.4069 349° North 252 290 5,700 2,439 Climbing Houston Center
Sun 10:05:16 AM 30.0961 -95.4342 344° North 272 313 8,600 2,557 Climbing Houston Center
Sun 10:06:17 AM 30.1700 -95.4672 339° North 281 323 10,900 1,525 Climbing Houston Center
Sun 10:07:18 AM 30.2533 -95.5103 336° Northwest 323 372 11,700 1,328 Climbing Houston Center
Sun 10:08:19 AM 30.3453 -95.5569 336° Northwest 354 407 13,600 1,820 Climbing Houston Center
Sun 10:09:20 AM 30.4353 -95.6022 337° Northwest 355 409 15,400 1,820 Climbing Houston Center
Sun 10:10:21 AM 30.5267 -95.6492 336° Northwest 358 412 17,300 1,854 Climbing Houston Center
Sun 10:11:23 AM 30.6356 -95.7056 336° Northwest 358 412 19,200 1,561 Climbing Houston Center
Sun 10:12:24 AM 30.7233 -95.7525 335° Northwest 359 413 20,500 1,279 Climbing Houston Center
Sun 10:13:25 AM 30.8153 -95.8017 335° Northwest 361 415 21,800 1,279 Climbing Houston Center
Sun 10:14:26 AM 30.9092 -95.8531 335° Northwest 368 423 23,100 1,230 Climbing Houston Center
Sun 10:15:27 AM 31.0031 -95.9014 336° Northwest 368 423 24,300 1,122 Climbing Houston Center
Sun 10:16:29 AM 31.0969 -95.9531 335° Northwest 370 426 25,400 1,171 Climbing Houston Center
Sun 10:17:30 AM 31.1928 -95.9950 339° North 367 422 26,700 1,426 Climbing Houston Center
Sun 10:18:31 AM 31.2903 -96.0314 342° North 366 421 28,300 1,672 Climbing Houston Center
Sun 10:19:32 AM 31.4036 -96.0753 342° North 361 415 30,100 1,475 Climbing Houston Center
Sun 10:20:33 AM 31.4833 -96.1058 342° North 354 407 31,300 1,180 Climbing Houston Center
Sun 10:21:34 AM 31.5644 -96.1700 326° Northwest 366 421 32,500 1,171 Climbing Houston Center
Sun 10:22:36 AM 31.6292 -96.2636 309° West 367 422 33,700 1,220 Climbing Houston Center
Sun 10:23:37 AM 31.7064 -96.3731 310° West 370 426 35,000 1,033 Climbing Houston Center
Sun 10:24:38 AM 31.7733 -96.4664 310° West 370 426 35,800 492 Climbing Houston Center
Sun 10:25:39 AM 31.8414 -96.5636 310° West 378 435 36,000 98 Climbing Houston Center
Sun 10:26:40 AM 31.9147 -96.6692 309° West 402 463 36,000  Level Houston Center
Sun 10:27:42 AM 31.9917 -96.7803 309° West 428 493 36,000  Level Houston Center
Sun 10:28:43 AM 32.0728 -96.8981 309° West 451 519 36,000  Level Houston Center
Sun 10:29:55 AM 32.1753 -97.0500 309° West 455 524 36,000  Level Fort Worth Center
Sun 10:30:55 AM 32.2569 -97.1750 308° West 467 537 36,000  Level Fort Worth Center
Sun 10:31:55 AM 32.3386 -97.2881 311° West 467 537 36,000  Level Fort Worth Center
Sun 10:32:55 AM 32.4178 -97.4108 307° West 467 537 36,000  Level Fort Worth Center
Sun 10:33:55 AM 32.4992 -97.5267 310° West 467 537 36,000  Level Fort Worth Center
Sun 10:34:55 AM 32.5783 -97.6453 308° West 467 537 36,000  Level Fort Worth Center
Sun 10:35:55 AM 32.6575 -97.7614 309° West 467 537 36,000  Level Fort Worth Center
Sun 10:36:55 AM 32.7239 -97.8581 309° West 467 537 36,000  Level Fort Worth Center
Sun 10:37:55 AM 32.8111 -97.9869 309° West 467 537 36,000  Level Fort Worth Center
Sun 10:38:55 AM 32.8942 -98.1086 309° West 467 537 36,000  Level Fort Worth Center
Sun 10:39:55 AM 32.9706 -98.2281 307° West 467 537 36,000  Level Fort Worth Center
Sun 10:40:55 AM 33.0492 -98.3478 308° West 467 537 36,000  Level Fort Worth Center
Sun 10:41:55 AM 33.1378 -98.4728 310° West 467 537 36,000  Level Fort Worth Center
Sun 10:42:55 AM 33.2181 -98.5953 308° West 462 532 36,000  Level Fort Worth Center
Sun 10:43:55 AM 33.2983 -98.7158 309° West 467 537 36,000  Level Fort Worth Center
Sun 10:44:55 AM 33.3764 -98.8364 308° West 467 537 36,000  Level Fort Worth Center
Sun 10:45:55 AM 33.4542 -98.9522 309° West 462 532 36,000  Level Fort Worth Center
Sun 10:46:55 AM 33.5300 -99.0681 308° West 451 519 36,000  Level Fort Worth Center
Sun 10:47:55 AM 33.6078 -99.1892 308° West 451 519 36,000  Level Fort Worth Center
Sun 10:48:55 AM 33.6811 -99.3031 308° West 446 513 36,000  Level Fort Worth Center
Sun 10:49:55 AM 33.7567 -99.4172 309° West 440 506 36,000  Level Fort Worth Center
Sun 10:50:55 AM 33.8319 -99.5364 307° West 445 512 36,000  Level Fort Worth Center
Sun 10:51:55 AM 33.9111 -99.6583 308° West 450 518 36,000  Level Fort Worth Center
Sun 10:52:55 AM 33.9881 -99.7781 308° West 450 518 36,000  Level Fort Worth Center
Sun 10:53:55 AM 34.0631 -99.8981 307° West 455 524 36,000  Level Fort Worth Center
Sun 10:54:55 AM 34.1378 -100.0156 308° West 455 524 36,000  Level Fort Worth Center
Sun 10:56:39 AM 34.2606 -100.2053 308° West 448 516 36,000  Level Albuquerque Center
Sun 10:57:40 AM 34.3367 -100.3242 308° West 448 516 36,000  Level Albuquerque Center
Sun 10:58:41 AM 34.4089 -100.4461 306° West 446 513 36,000  Level Albuquerque Center
Sun 10:59:42 AM 34.4997 -100.5883 308° West 445 512 36,000  Level Albuquerque Center
Sun 11:00:43 AM 34.5742 -100.7078 307° West 444 511 36,000  Level Albuquerque Center
Sun 11:01:45 AM 34.6481 -100.8261 307° West 443 510 36,000  Level Albuquerque Center
Sun 11:02:46 AM 34.7214 -100.9444 307° West 441 507 36,000  Level Albuquerque Center
Sun 11:03:47 AM 34.7939 -101.0639 306° West 440 506 36,000  Level Albuquerque Center
Sun 11:04:48 AM 34.8664 -101.1808 307° West 435 501 36,000  Level Albuquerque Center
Sun 11:05:49 AM 34.9386 -101.2978 307° West 434 499 36,000  Level Albuquerque Center
Sun 11:06:51 AM 35.0161 -101.4256 307° West 440 506 36,000  Level Albuquerque Center
Sun 11:07:52 AM 35.0906 -101.5444 307° West 441 507 36,000  Level Albuquerque Center
Sun 11:08:53 AM 35.1619 -101.6631 306° West 440 506 36,000  Level Albuquerque Center
Sun 11:09:54 AM 35.2358 -101.7875 306° West 445 512 36,000  Level Albuquerque Center
Sun 11:10:55 AM 35.3128 -101.9100 308° West 449 517 36,000  Level Albuquerque Center
Sun 11:11:57 AM 35.3831 -102.0364 304° West 446 513 36,000  Level Albuquerque Center
Sun 11:12:58 AM 35.4558 -102.1561 307° West 441 507 36,000  Level Albuquerque Center
Sun 11:13:59 AM 35.5281 -102.2767 306° West 440 506 36,000  Level Albuquerque Center
Sun 11:15:00 AM 35.6150 -102.4197 307° West 437 503 36,000  Level Albuquerque Center
Sun 11:16:01 AM 35.6861 -102.5414 306° West 438 504 36,000  Level Albuquerque Center
Sun 11:17:03 AM 35.7564 -102.6617 306° West 436 502 36,000  Level Albuquerque Center
Sun 11:18:04 AM 35.8303 -102.7850 306° West 443 510 36,000  Level Albuquerque Center
Sun 11:19:05 AM 35.9028 -102.9122 305° West 451 519 36,000  Level Albuquerque Center
Sun 11:20:06 AM 35.9769 -103.0378 306° West 446 513 36,000  Level Albuquerque Center
Sun 11:21:08 AM 36.0508 -103.1628 306° West 447 514 36,000  Level Albuquerque Center
Sun 11:22:09 AM 36.1300 -103.2817 310° West 447 514 36,000  Level Albuquerque Center
Sun 11:23:10 AM 36.2178 -103.3875 316° Northwest 439 505 36,000  Level Albuquerque Center
Sun 11:24:11 AM 36.3064 -103.4925 316° Northwest 439 505 36,000  Level Albuquerque Center
Sun 11:25:13 AM 36.3942 -103.5981 316° Northwest 438 504 36,000  Level Albuquerque Center
Sun 11:26:14 AM 36.4969 -103.7214 316° Northwest 437 503 36,000  Level Albuquerque Center
Sun 11:27:15 AM 36.5847 -103.8258 316° Northwest 435 501 36,000  Level Albuquerque Center
Sun 11:28:16 AM 36.6697 -103.9233 317° Northwest 431 496 36,000  Level Albuquerque Center
Sun 11:29:18 AM 36.7539 -104.0206 317° Northwest 432 497 36,000  Level Albuquerque Center
Sun 11:30:19 AM 36.8331 -104.1547 306° West 435 501 36,000  Level Albuquerque Center
Sun 11:31:20 AM 36.8958 -104.2767 303° West 434 499 36,000  Level Albuquerque Center
Sun 11:32:24 AM 36.9675 -104.4181 302° West 430 495 36,000  Level Denver Center
Sun 11:33:26 AM 37.0292 -104.5400 302° West 430 495 36,000  Level Denver Center
Sun 11:34:23 AM 37.0908 -104.6603 303° West 429 494 36,000  Level Albuquerque Center
Sun 11:35:25 AM 37.1519 -104.7811 302° West 428 493 36,000  Level Albuquerque Center
Sun 11:36:26 AM 37.2236 -104.9225 303° West 428 493 36,000  Level Albuquerque Center
Sun 11:37:33 AM 37.2950 -105.0658 302° West 431 496 36,000  Level Denver Center
Sun 11:38:35 AM 37.3564 -105.1908 302° West 428 493 36,000  Level Denver Center
Sun 11:39:48 AM 37.4169 -105.3122 302° West 428 493 36,000  Level Denver Center
Sun 11:40:51 AM 37.4981 -105.4753 302° West 430 495 36,000  Level Denver Center
Sun 11:41:52 AM 37.5686 -105.6158 302° West 431 496 36,000  Level Denver Center
Sun 11:42:54 AM 37.6300 -105.7397 302° West 434 499 36,000  Level Denver Center
Sun 11:43:56 AM 37.7000 -105.8833 302° West 432 497 36,000  Level Denver Center
Sun 11:44:58 AM 37.7606 -106.0078 302° West 433 498 36,000  Level Denver Center
Sun 11:46:00 AM 37.8214 -106.1317 302° West 433 498 36,000  Level Denver Center
Sun 11:47:01 AM 37.8886 -106.2778 300° West 431 496 36,000  Level Denver Center
Sun 11:48:03 AM 37.9411 -106.3808 303° West 435 501 36,000  Level Denver Center
Sun 11:49:05 AM 38.0203 -106.5492 301° West 433 498 36,000  Level Denver Center
Sun 11:50:07 AM 38.0792 -106.6756 301° West 433 498 36,000  Level Denver Center
Sun 11:51:09 AM 38.1517 -106.8183 303° West 431 496 36,000  Level Denver Center
Sun 11:52:11 AM 38.2072 -106.9394 300° West 430 495 36,000  Level Denver Center
Sun 11:53:12 AM 38.2692 -107.0689 301° West 427 491 36,000 -244 Level Denver Center
Sun 11:54:14 AM 38.3372 -107.2144 301° West 433 498 35,500 -1,065 Descending Denver Center
Sun 11:55:16 AM 38.3950 -107.3386 301° West 428 493 33,800 -1,887 Descending Denver Center
Sun 11:56:18 AM 38.4631 -107.4828 301° West 426 490 31,600 -1,984 Descending Denver Center
Sun 11:57:20 AM 38.5197 -107.6144 299° West 439 505 29,700 -1,707 Descending Denver Center
Sun 11:58:21 AM 38.5719 -107.7217 302° West 446 513 28,100 -2,049 Descending Denver Center
Sun 11:59:23 AM 38.6522 -107.8978 300° West 447 514 25,500 -2,177 Descending Denver Center
Sun 12:00:25 PM 38.7117 -108.0264 301° West 437 503 23,600 -2,032 Descending Denver Center
Sun 12:01:27 PM 38.7736 -108.1617 300° West 392 451 21,300 -2,049 Descending Denver Center
Sun 12:02:28 PM 38.8231 -108.2706 300° West 368 423 19,400 -1,951 Descending Denver Center
Sun 12:03:30 PM 38.8767 -108.3867 301° West 349 402 17,300 -2,129 Descending Denver Center
Sun 12:04:32 PM 38.9336 -108.4928 305° West 340 391 15,000 -2,226 Descending Denver Center
Sun 12:05:34 PM 38.9975 -108.5767 314° West 327 376 12,700 -2,000 Descending Denver Center
Sun 12:06:35 PM 39.0561 -108.6508 316° Northwest 294 338 10,900 -1,805 Descending Denver Center
Sun 12:07:37 PM 39.1092 -108.7225 314° West 256 295 9,000 -1,452 Descending Denver Center
Sun 12:08:39 PM 39.1561 -108.7583 329° Northwest 212 244 7,900 -1,113 Descending Denver Center
Sun 12:09:41 PM 39.1758 -108.6939 68° East 195 224 6,700 -581 Descending Denver Center
Sun 12:10:43 PM 39.1817 -108.6292 83° East 179 206 6,700 -488 Level Denver Center
Sun 12:11:44 PM 39.1606 -108.5914 126° Southeast 157 181 5,700 -919 Descending Denver Center
Sun 12:12:47 PM 39.1331 -108.5411 125° Southeast 141 162 4,800 -387 Descending Denver Center
Sun 12:13:48 PM 39.1125 -108.5036 125° Southeast 141 162 4,900 98 Climbing Denver Center

Login

Don't have an account? Register now (free) for customized features, flight alerts, and more!